sensor_id;sensor_type;location;lat;lon;timestamp;P1;durP1;ratioP1;P2;durP2;ratioP2
21503;SDS011;10913;51.992;9.228;2023-04-24T00:00:50;2.22;;;1.40;;
21503;SDS011;10913;51.992;9.228;2023-04-24T00:03:15;2.63;;;1.30;;
21503;SDS011;10913;51.992;9.228;2023-04-24T00:05:41;1.75;;;1.25;;
21503;SDS011;10913;51.992;9.228;2023-04-24T00:08:07;1.25;;;1.15;;
21503;SDS011;10913;51.992;9.228;2023-04-24T00:10:33;1.30;;;1.20;;
21503;SDS011;10913;51.992;9.228;2023-04-24T00:12:58;1.30;;;1.20;;
21503;SDS011;10913;51.992;9.228;2023-04-24T00:15:23;1.30;;;1.20;;
21503;SDS011;10913;51.992;9.228;2023-04-24T00:17:49;1.30;;;1.20;;
21503;SDS011;10913;51.992;9.228;2023-04-24T00:20:14;1.45;;;1.20;;
21503;SDS011;10913;51.992;9.228;2023-04-24T00:22:40;2.08;;;1.35;;
21503;SDS011;10913;51.992;9.228;2023-04-24T00:25:05;2.13;;;1.23;;
21503;SDS011;10913;51.992;9.228;2023-04-24T00:27:31;1.30;;;1.20;;
21503;SDS011;10913;51.992;9.228;2023-04-24T00:29:56;2.40;;;1.40;;
21503;SDS011;10913;51.992;9.228;2023-04-24T00:32:21;1.40;;;1.30;;
21503;SDS011;10913;51.992;9.228;2023-04-24T00:34:47;1.55;;;1.20;;
21503;SDS011;10913;51.992;9.228;2023-04-24T00:37:12;1.58;;;1.02;;
21503;SDS011;10913;51.992;9.228;2023-04-24T00:39:38;1.50;;;1.20;;
21503;SDS011;10913;51.992;9.228;2023-04-24T00:42:03;1.75;;;1.08;;
21503;SDS011;10913;51.992;9.228;2023-04-24T00:44:31;2.53;;;1.13;;
21503;SDS011;10913;51.992;9.228;2023-04-24T00:46:58;1.13;;;1.08;;
21503;SDS011;10913;51.992;9.228;2023-04-24T00:49:25;1.20;;;1.10;;
21503;SDS011;10913;51.992;9.228;2023-04-24T00:51:50;1.25;;;1.15;;
21503;SDS011;10913;51.992;9.228;2023-04-24T00:54:16;1.08;;;1.00;;
21503;SDS011;10913;51.992;9.228;2023-04-24T00:56:42;1.58;;;1.20;;
21503;SDS011;10913;51.992;9.228;2023-04-24T00:59:09;1.05;;;1.00;;
21503;SDS011;10913;51.992;9.228;2023-04-24T01:01:35;1.65;;;1.02;;
21503;SDS011;10913;51.992;9.228;2023-04-24T01:04:01;1.00;;;1.00;;
21503;SDS011;10913;51.992;9.228;2023-04-24T01:06:27;1.50;;;1.10;;
21503;SDS011;10913;51.992;9.228;2023-04-24T01:08:54;1.10;;;1.00;;
21503;SDS011;10913;51.992;9.228;2023-04-24T01:11:20;1.45;;;1.10;;
21503;SDS011;10913;51.992;9.228;2023-04-24T01:13:46;0.98;;;0.98;;
21503;SDS011;10913;51.992;9.228;2023-04-24T01:16:13;1.75;;;1.30;;
21503;SDS011;10913;51.992;9.228;2023-04-24T01:18:42;1.40;;;1.30;;
21503;SDS011;10913;51.992;9.228;2023-04-24T01:21:08;1.15;;;1.10;;
21503;SDS011;10913;51.992;9.228;2023-04-24T01:23:34;1.00;;;1.00;;
21503;SDS011;10913;51.992;9.228;2023-04-24T01:25:59;1.00;;;1.00;;
21503;SDS011;10913;51.992;9.228;2023-04-24T01:28:25;1.00;;;1.00;;
21503;SDS011;10913;51.992;9.228;2023-04-24T01:30:51;1.30;;;1.17;;
21503;SDS011;10913;51.992;9.228;2023-04-24T01:33:17;1.25;;;0.93;;
21503;SDS011;10913;51.992;9.228;2023-04-24T01:35:43;1.80;;;1.20;;
21503;SDS011;10913;51.992;9.228;2023-04-24T01:38:08;1.67;;;1.05;;
21503;SDS011;10913;51.992;9.228;2023-04-24T01:40:34;2.67;;;1.20;;
21503;SDS011;10913;51.992;9.228;2023-04-24T01:43:00;1.02;;;1.02;;
21503;SDS011;10913;51.992;9.228;2023-04-24T01:45:25;1.40;;;1.30;;
21503;SDS011;10913;51.992;9.228;2023-04-24T01:47:51;1.20;;;1.00;;
21503;SDS011;10913;51.992;9.228;2023-04-24T01:50:17;0.90;;;0.90;;
21503;SDS011;10913;51.992;9.228;2023-04-24T01:52:43;1.02;;;0.93;;
21503;SDS011;10913;51.992;9.228;2023-04-24T01:55:09;1.00;;;1.00;;
21503;SDS011;10913;51.992;9.228;2023-04-24T01:57:35;0.90;;;0.70;;
21503;SDS011;10913;51.992;9.228;2023-04-24T02:00:00;1.52;;;0.90;;
21503;SDS011;10913;51.992;9.228;2023-04-24T02:02:29;0.68;;;0.68;;
21503;SDS011;10913;51.992;9.228;2023-04-24T02:04:55;0.88;;;0.88;;
21503;SDS011;10913;51.992;9.228;2023-04-24T02:07:20;0.70;;;0.70;;
21503;SDS011;10913;51.992;9.228;2023-04-24T02:09:46;0.95;;;0.90;;
21503;SDS011;10913;51.992;9.228;2023-04-24T02:12:11;1.40;;;1.00;;
21503;SDS011;10913;51.992;9.228;2023-04-24T02:14:37;1.25;;;1.00;;
21503;SDS011;10913;51.992;9.228;2023-04-24T02:17:02;0.77;;;0.77;;
21503;SDS011;10913;51.992;9.228;2023-04-24T02:19:28;0.82;;;0.80;;
21503;SDS011;10913;51.992;9.228;2023-04-24T02:21:53;1.00;;;0.90;;
21503;SDS011;10913;51.992;9.228;2023-04-24T02:24:18;0.70;;;0.70;;
21503;SDS011;10913;51.992;9.228;2023-04-24T02:26:44;1.33;;;0.80;;
21503;SDS011;10913;51.992;9.228;2023-04-24T02:29:09;0.93;;;0.88;;
21503;SDS011;10913;51.992;9.228;2023-04-24T02:31:35;1.05;;;0.90;;
21503;SDS011;10913;51.992;9.228;2023-04-24T02:34:00;0.80;;;0.80;;
21503;SDS011;10913;51.992;9.228;2023-04-24T02:36:26;1.10;;;0.90;;
21503;SDS011;10913;51.992;9.228;2023-04-24T02:38:51;1.67;;;0.90;;
21503;SDS011;10913;51.992;9.228;2023-04-24T02:41:17;0.80;;;0.80;;
21503;SDS011;10913;51.992;9.228;2023-04-24T02:43:42;1.00;;;0.90;;
21503;SDS011;10913;51.992;9.228;2023-04-24T02:46:07;1.08;;;0.95;;
21503;SDS011;10913;51.992;9.228;2023-04-24T02:48:32;2.00;;;1.00;;
21503;SDS011;10913;51.992;9.228;2023-04-24T02:50:58;1.48;;;0.70;;
21503;SDS011;10913;51.992;9.228;2023-04-24T02:53:23;0.93;;;0.93;;
21503;SDS011;10913;51.992;9.228;2023-04-24T02:55:49;1.55;;;1.00;;
21503;SDS011;10913;51.992;9.228;2023-04-24T02:58:14;1.10;;;1.00;;
21503;SDS011;10913;51.992;9.228;2023-04-24T03:00:40;1.48;;;1.00;;
21503;SDS011;10913;51.992;9.228;2023-04-24T03:03:06;0.90;;;0.90;;
21503;SDS011;10913;51.992;9.228;2023-04-24T03:05:32;0.90;;;0.90;;
21503;SDS011;10913;51.992;9.228;2023-04-24T03:07:57;1.00;;;0.90;;
21503;SDS011;10913;51.992;9.228;2023-04-24T03:10:22;1.20;;;0.98;;
21503;SDS011;10913;51.992;9.228;2023-04-24T03:12:48;1.50;;;1.00;;
21503;SDS011;10913;51.992;9.228;2023-04-24T03:15:13;0.77;;;0.77;;
21503;SDS011;10913;51.992;9.228;2023-04-24T03:17:39;0.95;;;0.90;;
21503;SDS011;10913;51.992;9.228;2023-04-24T03:20:04;0.70;;;0.70;;
21503;SDS011;10913;51.992;9.228;2023-04-24T03:22:31;1.50;;;0.90;;
21503;SDS011;10913;51.992;9.228;2023-04-24T03:24:57;2.22;;;1.13;;
21503;SDS011;10913;51.992;9.228;2023-04-24T03:27:23;2.30;;;1.13;;
21503;SDS011;10913;51.992;9.228;2023-04-24T03:29:48;1.08;;;0.98;;
21503;SDS011;10913;51.992;9.228;2023-04-24T03:32:18;0.98;;;0.82;;
21503;SDS011;10913;51.992;9.228;2023-04-24T03:34:44;1.15;;;0.90;;
21503;SDS011;10913;51.992;9.228;2023-04-24T03:37:09;1.00;;;1.00;;
21503;SDS011;10913;51.992;9.228;2023-04-24T03:39:35;1.70;;;0.90;;
21503;SDS011;10913;51.992;9.228;2023-04-24T03:42:00;0.88;;;0.80;;
21503;SDS011;10913;51.992;9.228;2023-04-24T03:44:26;1.83;;;0.90;;
21503;SDS011;10913;51.992;9.228;2023-04-24T03:46:51;1.50;;;1.10;;
21503;SDS011;10913;51.992;9.228;2023-04-24T03:49:17;1.63;;;0.90;;
21503;SDS011;10913;51.992;9.228;2023-04-24T03:51:42;1.08;;;1.00;;
21503;SDS011;10913;51.992;9.228;2023-04-24T03:54:08;2.55;;;1.00;;
21503;SDS011;10913;51.992;9.228;2023-04-24T03:56:33;1.00;;;1.00;;
21503;SDS011;10913;51.992;9.228;2023-04-24T03:58:58;0.90;;;0.90;;
21503;SDS011;10913;51.992;9.228;2023-04-24T04:01:24;1.33;;;1.20;;
21503;SDS011;10913;51.992;9.228;2023-04-24T04:03:49;1.65;;;1.00;;
21503;SDS011;10913;51.992;9.228;2023-04-24T04:06:14;1.48;;;1.08;;
21503;SDS011;10913;51.992;9.228;2023-04-24T04:08:40;1.13;;;0.90;;
21503;SDS011;10913;51.992;9.228;2023-04-24T04:11:05;1.83;;;1.00;;
21503;SDS011;10913;51.992;9.228;2023-04-24T04:13:31;1.77;;;1.20;;
21503;SDS011;10913;51.992;9.228;2023-04-24T04:15:56;1.85;;;1.23;;
21503;SDS011;10913;51.992;9.228;2023-04-24T04:18:21;2.55;;;1.17;;
21503;SDS011;10913;51.992;9.228;2023-04-24T04:20:47;1.52;;;1.38;;
21503;SDS011;10913;51.992;9.228;2023-04-24T04:23:12;1.20;;;1.10;;
21503;SDS011;10913;51.992;9.228;2023-04-24T04:25:37;1.13;;;1.10;;
21503;SDS011;10913;51.992;9.228;2023-04-24T04:28:03;1.48;;;1.17;;
21503;SDS011;10913;51.992;9.228;2023-04-24T04:30:28;2.63;;;1.15;;
21503;SDS011;10913;51.992;9.228;2023-04-24T04:32:57;1.20;;;0.95;;
21503;SDS011;10913;51.992;9.228;2023-04-24T04:35:23;1.20;;;1.10;;
21503;SDS011;10913;51.992;9.228;2023-04-24T04:37:49;2.03;;;1.17;;
21503;SDS011;10913;51.992;9.228;2023-04-24T04:40:16;1.20;;;1.10;;
21503;SDS011;10913;51.992;9.228;2023-04-24T04:42:42;1.02;;;0.93;;
21503;SDS011;10913;51.992;9.228;2023-04-24T04:45:10;1.13;;;1.00;;
21503;SDS011;10913;51.992;9.228;2023-04-24T04:47:36;1.13;;;1.02;;
21503;SDS011;10913;51.992;9.228;2023-04-24T04:50:02;1.05;;;1.05;;
21503;SDS011;10913;51.992;9.228;2023-04-24T04:52:28;1.42;;;1.30;;
21503;SDS011;10913;51.992;9.228;2023-04-24T04:54:54;1.05;;;1.05;;
21503;SDS011;10913;51.992;9.228;2023-04-24T04:57:20;1.60;;;1.10;;
21503;SDS011;10913;51.992;9.228;2023-04-24T04:59:46;1.20;;;1.10;;
21503;SDS011;10913;51.992;9.228;2023-04-24T05:02:11;1.30;;;1.20;;
21503;SDS011;10913;51.992;9.228;2023-04-24T05:04:37;1.30;;;1.10;;
21503;SDS011;10913;51.992;9.228;2023-04-24T05:07:02;1.00;;;1.00;;
21503;SDS011;10913;51.992;9.228;2023-04-24T05:09:28;1.50;;;1.30;;
21503;SDS011;10913;51.992;9.228;2023-04-24T05:11:54;1.10;;;1.00;;
21503;SDS011;10913;51.992;9.228;2023-04-24T05:14:20;1.25;;;1.10;;
21503;SDS011;10913;51.992;9.228;2023-04-24T05:16:45;1.65;;;1.05;;
21503;SDS011;10913;51.992;9.228;2023-04-24T05:19:11;1.00;;;1.00;;
21503;SDS011;10913;51.992;9.228;2023-04-24T05:21:38;1.38;;;1.27;;
21503;SDS011;10913;51.992;9.228;2023-04-24T05:24:04;1.60;;;1.10;;
21503;SDS011;10913;51.992;9.228;2023-04-24T05:26:30;1.30;;;1.20;;
21503;SDS011;10913;51.992;9.228;2023-04-24T05:28:56;1.55;;;1.27;;
21503;SDS011;10913;51.992;9.228;2023-04-24T05:31:21;1.60;;;1.45;;
21503;SDS011;10913;51.992;9.228;2023-04-24T05:33:47;1.40;;;1.30;;
21503;SDS011;10913;51.992;9.228;2023-04-24T05:36:12;1.50;;;1.40;;
21503;SDS011;10913;51.992;9.228;2023-04-24T05:38:38;1.63;;;1.50;;
21503;SDS011;10913;51.992;9.228;2023-04-24T05:41:03;2.25;;;1.33;;
21503;SDS011;10913;51.992;9.228;2023-04-24T05:43:28;2.78;;;1.65;;
21503;SDS011;10913;51.992;9.228;2023-04-24T05:45:54;1.98;;;1.70;;
21503;SDS011;10913;51.992;9.228;2023-04-24T05:48:20;1.83;;;1.70;;
21503;SDS011;10913;51.992;9.228;2023-04-24T05:50:46;1.60;;;1.50;;
21503;SDS011;10913;51.992;9.228;2023-04-24T05:53:12;1.80;;;1.70;;
21503;SDS011;10913;51.992;9.228;2023-04-24T05:55:38;2.38;;;1.98;;
21503;SDS011;10913;51.992;9.228;2023-04-24T05:58:03;1.80;;;1.70;;
21503;SDS011;10913;51.992;9.228;2023-04-24T06:00:29;3.78;;;1.90;;
21503;SDS011;10913;51.992;9.228;2023-04-24T06:02:55;2.40;;;2.20;;
21503;SDS011;10913;51.992;9.228;2023-04-24T06:05:20;2.45;;;2.20;;
21503;SDS011;10913;51.992;9.228;2023-04-24T06:07:46;2.22;;;1.90;;
21503;SDS011;10913;51.992;9.228;2023-04-24T06:10:13;2.97;;;2.67;;
21503;SDS011;10913;51.992;9.228;2023-04-24T06:12:38;2.88;;;2.55;;
21503;SDS011;10913;51.992;9.228;2023-04-24T06:15:04;2.65;;;2.13;;
21503;SDS011;10913;51.992;9.228;2023-04-24T06:17:30;3.00;;;2.20;;
21503;SDS011;10913;51.992;9.228;2023-04-24T06:19:57;4.70;;;3.90;;
21503;SDS011;10913;51.992;9.228;2023-04-24T06:22:22;4.65;;;4.20;;
21503;SDS011;10913;51.992;9.228;2023-04-24T06:24:48;6.65;;;5.82;;
21503;SDS011;10913;51.992;9.228;2023-04-24T06:27:13;6.72;;;5.22;;
21503;SDS011;10913;51.992;9.228;2023-04-24T06:29:39;6.65;;;5.60;;
21503;SDS011;10913;51.992;9.228;2023-04-24T06:32:04;6.03;;;5.43;;
21503;SDS011;10913;51.992;9.228;2023-04-24T06:34:30;5.28;;;4.78;;
21503;SDS011;10913;51.992;9.228;2023-04-24T06:36:57;5.20;;;4.70;;
21503;SDS011;10913;51.992;9.228;2023-04-24T06:39:23;5.15;;;4.60;;
21503;SDS011;10913;51.992;9.228;2023-04-24T06:41:48;4.60;;;4.20;;
21503;SDS011;10913;51.992;9.228;2023-04-24T06:44:13;4.75;;;4.20;;
21503;SDS011;10913;51.992;9.228;2023-04-24T06:46:39;4.68;;;4.22;;
21503;SDS011;10913;51.992;9.228;2023-04-24T06:49:06;6.68;;;5.43;;
21503;SDS011;10913;51.992;9.228;2023-04-24T06:51:31;6.78;;;5.47;;
21503;SDS011;10913;51.992;9.228;2023-04-24T06:53:58;7.18;;;6.10;;
21503;SDS011;10913;51.992;9.228;2023-04-24T06:56:23;10.25;;;6.93;;
21503;SDS011;10913;51.992;9.228;2023-04-24T06:58:50;7.85;;;6.53;;
21503;SDS011;10913;51.992;9.228;2023-04-24T07:01:16;8.90;;;6.97;;
21503;SDS011;10913;51.992;9.228;2023-04-24T07:03:41;9.50;;;7.25;;
21503;SDS011;10913;51.992;9.228;2023-04-24T07:06:07;7.93;;;6.50;;
21503;SDS011;10913;51.992;9.228;2023-04-24T07:08:32;7.78;;;6.38;;
21503;SDS011;10913;51.992;9.228;2023-04-24T07:10:58;9.32;;;6.82;;
21503;SDS011;10913;51.992;9.228;2023-04-24T07:13:23;6.90;;;6.20;;
21503;SDS011;10913;51.992;9.228;2023-04-24T07:15:49;7.15;;;6.30;;
21503;SDS011;10913;51.992;9.228;2023-04-24T07:18:16;8.15;;;6.45;;
21503;SDS011;10913;51.992;9.228;2023-04-24T07:20:41;8.15;;;6.75;;
21503;SDS011;10913;51.992;9.228;2023-04-24T07:23:07;7.40;;;6.60;;
21503;SDS011;10913;51.992;9.228;2023-04-24T07:25:32;6.03;;;5.43;;
21503;SDS011;10913;51.992;9.228;2023-04-24T07:27:58;6.70;;;6.10;;
21503;SDS011;10913;51.992;9.228;2023-04-24T07:30:24;7.30;;;6.35;;
21503;SDS011;10913;51.992;9.228;2023-04-24T07:32:49;6.10;;;5.50;;
21503;SDS011;10913;51.992;9.228;2023-04-24T07:35:15;8.80;;;7.00;;
21503;SDS011;10913;51.992;9.228;2023-04-24T07:37:40;7.50;;;6.68;;
21503;SDS011;10913;51.992;9.228;2023-04-24T07:40:10;6.60;;;5.80;;
21503;SDS011;10913;51.992;9.228;2023-04-24T07:42:37;7.35;;;5.85;;
21503;SDS011;10913;51.992;9.228;2023-04-24T07:45:03;6.22;;;5.30;;
21503;SDS011;10913;51.992;9.228;2023-04-24T07:47:29;7.75;;;5.25;;
21503;SDS011;10913;51.992;9.228;2023-04-24T07:49:55;7.07;;;5.57;;
21503;SDS011;10913;51.992;9.228;2023-04-24T07:52:21;6.55;;;5.30;;
21503;SDS011;10913;51.992;9.228;2023-04-24T07:54:46;6.35;;;4.70;;
21503;SDS011;10913;51.992;9.228;2023-04-24T07:57:11;5.60;;;5.03;;
21503;SDS011;10913;51.992;9.228;2023-04-24T07:59:37;5.22;;;4.72;;
21503;SDS011;10913;51.992;9.228;2023-04-24T08:02:02;6.15;;;4.80;;
21503;SDS011;10913;51.992;9.228;2023-04-24T08:04:27;5.20;;;4.70;;
21503;SDS011;10913;51.992;9.228;2023-04-24T08:06:53;5.32;;;4.82;;
21503;SDS011;10913;51.992;9.228;2023-04-24T08:09:18;5.00;;;4.50;;
21503;SDS011;10913;51.992;9.228;2023-04-24T08:11:44;5.47;;;4.70;;
21503;SDS011;10913;51.992;9.228;2023-04-24T08:14:09;6.38;;;5.60;;
21503;SDS011;10913;51.992;9.228;2023-04-24T08:16:37;6.40;;;5.00;;
21503;SDS011;10913;51.992;9.228;2023-04-24T08:19:02;5.30;;;4.72;;
21503;SDS011;10913;51.992;9.228;2023-04-24T08:21:28;6.88;;;5.00;;
21503;SDS011;10913;51.992;9.228;2023-04-24T08:23:53;4.80;;;3.88;;
21503;SDS011;10913;51.992;9.228;2023-04-24T08:26:18;6.50;;;4.75;;
21503;SDS011;10913;51.992;9.228;2023-04-24T08:28:44;4.72;;;4.32;;
21503;SDS011;10913;51.992;9.228;2023-04-24T08:31:09;4.72;;;4.20;;
21503;SDS011;10913;51.992;9.228;2023-04-24T08:33:37;4.65;;;4.25;;
21503;SDS011;10913;51.992;9.228;2023-04-24T08:36:03;6.40;;;4.63;;
21503;SDS011;10913;51.992;9.228;2023-04-24T08:38:30;4.70;;;4.30;;
21503;SDS011;10913;51.992;9.228;2023-04-24T08:40:56;5.07;;;4.57;;
21503;SDS011;10913;51.992;9.228;2023-04-24T08:43:23;4.38;;;4.07;;
21503;SDS011;10913;51.992;9.228;2023-04-24T08:45:49;5.82;;;4.57;;
21503;SDS011;10913;51.992;9.228;2023-04-24T08:48:15;4.50;;;4.10;;
21503;SDS011;10913;51.992;9.228;2023-04-24T08:50:41;5.05;;;4.55;;
21503;SDS011;10913;51.992;9.228;2023-04-24T08:53:09;4.72;;;4.32;;
21503;SDS011;10913;51.992;9.228;2023-04-24T08:55:36;4.47;;;4.03;;
21503;SDS011;10913;51.992;9.228;2023-04-24T08:58:02;3.50;;;3.20;;
21503;SDS011;10913;51.992;9.228;2023-04-24T09:00:28;3.97;;;3.45;;
21503;SDS011;10913;51.992;9.228;2023-04-24T09:02:55;3.92;;;3.45;;
21503;SDS011;10913;51.992;9.228;2023-04-24T09:05:21;5.10;;;3.55;;
21503;SDS011;10913;51.992;9.228;2023-04-24T09:07:55;3.40;;;3.10;;
21503;SDS011;10913;51.992;9.228;2023-04-24T09:10:22;3.83;;;2.90;;
21503;SDS011;10913;51.992;9.228;2023-04-24T09:12:49;2.65;;;2.45;;
21503;SDS011;10913;51.992;9.228;2023-04-24T09:15:16;2.97;;;2.72;;
21503;SDS011;10913;51.992;9.228;2023-04-24T09:17:42;3.55;;;3.13;;
21503;SDS011;10913;51.992;9.228;2023-04-24T09:20:08;4.05;;;3.25;;
21503;SDS011;10913;51.992;9.228;2023-04-24T09:22:34;3.83;;;2.80;;
21503;SDS011;10913;51.992;9.228;2023-04-24T09:25:06;3.28;;;2.70;;
21503;SDS011;10913;51.992;9.228;2023-04-24T09:27:33;3.10;;;2.80;;
21503;SDS011;10913;51.992;9.228;2023-04-24T09:30:00;3.35;;;2.83;;
21503;SDS011;10913;51.992;9.228;2023-04-24T09:32:26;2.83;;;2.63;;
21503;SDS011;10913;51.992;9.228;2023-04-24T09:35:13;3.08;;;2.78;;
21503;SDS011;10913;51.992;9.228;2023-04-24T09:37:43;3.92;;;2.83;;
21503;SDS011;10913;51.992;9.228;2023-04-24T09:40:20;3.17;;;2.60;;
21503;SDS011;10913;51.992;9.228;2023-04-24T09:42:56;3.40;;;3.10;;
21503;SDS011;10913;51.992;9.228;2023-04-24T09:45:27;3.10;;;2.60;;
21503;SDS011;10913;51.992;9.228;2023-04-24T09:47:53;3.40;;;2.85;;
21503;SDS011;10913;51.992;9.228;2023-04-24T09:50:20;3.03;;;2.63;;
21503;SDS011;10913;51.992;9.228;2023-04-24T09:52:47;2.75;;;2.38;;
21503;SDS011;10913;51.992;9.228;2023-04-24T09:55:22;2.60;;;2.20;;
21503;SDS011;10913;51.992;9.228;2023-04-24T09:57:51;2.33;;;1.90;;
21503;SDS011;10913;51.992;9.228;2023-04-24T10:02:59;1.88;;;1.77;;
21503;SDS011;10913;51.992;9.228;2023-04-24T10:05:33;2.05;;;1.95;;
21503;SDS011;10913;51.992;9.228;2023-04-24T10:08:10;2.10;;;1.90;;
21503;SDS011;10913;51.992;9.228;2023-04-24T10:10:40;2.25;;;2.05;;
21503;SDS011;10913;51.992;9.228;2023-04-24T10:13:07;3.30;;;2.10;;
21503;SDS011;10913;51.992;9.228;2023-04-24T10:15:35;2.58;;;1.98;;
21503;SDS011;10913;51.992;9.228;2023-04-24T10:18:01;2.00;;;1.90;;
21503;SDS011;10913;51.992;9.228;2023-04-24T10:20:29;2.00;;;1.90;;
21503;SDS011;10913;51.992;9.228;2023-04-24T10:22:56;1.88;;;1.75;;
21503;SDS011;10913;51.992;9.228;2023-04-24T10:25:24;1.63;;;1.50;;
21503;SDS011;10913;51.992;9.228;2023-04-24T10:27:51;2.00;;;1.60;;
21503;SDS011;10913;51.992;9.228;2023-04-24T10:30:18;1.58;;;1.40;;
21503;SDS011;10913;51.992;9.228;2023-04-24T10:32:44;1.63;;;1.52;;
21503;SDS011;10913;51.992;9.228;2023-04-24T10:35:13;2.03;;;1.50;;
21503;SDS011;10913;51.992;9.228;2023-04-24T10:37:42;1.52;;;1.42;;
21503;SDS011;10913;51.992;9.228;2023-04-24T10:40:11;1.45;;;1.35;;
21503;SDS011;10913;51.992;9.228;2023-04-24T10:42:40;1.42;;;1.33;;
21503;SDS011;10913;51.992;9.228;2023-04-24T10:45:15;1.90;;;1.50;;
21503;SDS011;10913;51.992;9.228;2023-04-24T10:47:42;1.60;;;1.50;;
21503;SDS011;10913;51.992;9.228;2023-04-24T10:50:29;1.70;;;1.60;;
21503;SDS011;10913;51.992;9.228;2023-04-24T10:53:07;1.70;;;1.60;;
21503;SDS011;10913;51.992;9.228;2023-04-24T10:55:48;1.80;;;1.70;;
21503;SDS011;10913;51.992;9.228;2023-04-24T10:58:15;1.50;;;1.40;;
21503;SDS011;10913;51.992;9.228;2023-04-24T11:00:42;1.88;;;1.77;;
21503;SDS011;10913;51.992;9.228;2023-04-24T11:03:23;1.52;;;1.42;;
21503;SDS011;10913;51.992;9.228;2023-04-24T11:05:55;1.75;;;1.63;;
21503;SDS011;10913;51.992;9.228;2023-04-24T11:08:32;2.10;;;1.45;;
21503;SDS011;10913;51.992;9.228;2023-04-24T11:24:30;1.30;;;0.90;;
21503;SDS011;10913;51.992;9.228;2023-04-24T11:29:38;0.80;;;0.80;;
21503;SDS011;10913;51.992;9.228;2023-04-24T11:34:53;0.85;;;0.85;;
21503;SDS011;10913;51.992;9.228;2023-04-24T11:37:23;0.82;;;0.82;;
21503;SDS011;10913;51.992;9.228;2023-04-24T11:39:52;0.70;;;0.70;;
21503;SDS011;10913;51.992;9.228;2023-04-24T11:42:19;0.80;;;0.80;;
21503;SDS011;10913;51.992;9.228;2023-04-24T11:44:46;1.02;;;1.02;;
21503;SDS011;10913;51.992;9.228;2023-04-24T11:47:12;0.90;;;0.90;;
21503;SDS011;10913;51.992;9.228;2023-04-24T11:49:38;1.52;;;1.30;;
21503;SDS011;10913;51.992;9.228;2023-04-24T11:52:03;1.25;;;1.00;;
21503;SDS011;10913;51.992;9.228;2023-04-24T11:54:29;1.33;;;1.23;;
21503;SDS011;10913;51.992;9.228;2023-04-24T11:56:55;1.40;;;1.30;;
21503;SDS011;10913;51.992;9.228;2023-04-24T11:59:21;1.30;;;1.20;;
21503;SDS011;10913;51.992;9.228;2023-04-24T12:01:47;1.30;;;1.20;;
21503;SDS011;10913;51.992;9.228;2023-04-24T12:04:14;1.00;;;1.00;;
21503;SDS011;10913;51.992;9.228;2023-04-24T12:07:00;0.98;;;0.98;;
21503;SDS011;10913;51.992;9.228;2023-04-24T12:09:39;1.35;;;1.13;;
21503;SDS011;10913;51.992;9.228;2023-04-24T12:12:06;1.50;;;1.40;;
21503;SDS011;10913;51.992;9.228;2023-04-24T12:14:32;1.70;;;1.60;;
21503;SDS011;10913;51.992;9.228;2023-04-24T12:16:57;1.52;;;1.48;;
21503;SDS011;10913;51.992;9.228;2023-04-24T12:19:23;1.60;;;1.50;;
21503;SDS011;10913;51.992;9.228;2023-04-24T12:22:04;1.60;;;1.50;;
21503;SDS011;10913;51.992;9.228;2023-04-24T12:24:31;1.27;;;1.27;;
21503;SDS011;10913;51.992;9.228;2023-04-24T12:26:57;2.75;;;1.40;;
21503;SDS011;10913;51.992;9.228;2023-04-24T12:29:23;1.58;;;1.48;;
21503;SDS011;10913;51.992;9.228;2023-04-24T12:31:49;1.65;;;1.30;;
21503;SDS011;10913;51.992;9.228;2023-04-24T12:34:22;1.60;;;1.50;;
21503;SDS011;10913;51.992;9.228;2023-04-24T12:36:50;1.60;;;1.50;;
21503;SDS011;10913;51.992;9.228;2023-04-24T12:39:18;1.35;;;1.35;;
21503;SDS011;10913;51.992;9.228;2023-04-24T12:41:54;1.20;;;1.20;;
21503;SDS011;10913;51.992;9.228;2023-04-24T12:46:56;0.70;;;0.70;;
21503;SDS011;10913;51.992;9.228;2023-04-24T12:49:22;0.60;;;0.60;;
21503;SDS011;10913;51.992;9.228;2023-04-24T12:51:47;0.60;;;0.60;;
21503;SDS011;10913;51.992;9.228;2023-04-24T12:54:12;0.60;;;0.60;;
21503;SDS011;10913;51.992;9.228;2023-04-24T12:56:38;0.80;;;0.80;;
21503;SDS011;10913;51.992;9.228;2023-04-24T12:59:04;0.70;;;0.70;;
21503;SDS011;10913;51.992;9.228;2023-04-24T13:01:30;0.60;;;0.60;;
21503;SDS011;10913;51.992;9.228;2023-04-24T13:03:55;0.60;;;0.60;;
21503;SDS011;10913;51.992;9.228;2023-04-24T13:06:21;1.20;;;0.90;;
21503;SDS011;10913;51.992;9.228;2023-04-24T13:08:46;0.98;;;0.85;;
21503;SDS011;10913;51.992;9.228;2023-04-24T13:11:12;1.05;;;0.82;;
21503;SDS011;10913;51.992;9.228;2023-04-24T13:13:38;0.95;;;0.80;;
21503;SDS011;10913;51.992;9.228;2023-04-24T13:16:03;1.00;;;1.00;;
21503;SDS011;10913;51.992;9.228;2023-04-24T13:18:29;1.00;;;1.00;;
21503;SDS011;10913;51.992;9.228;2023-04-24T13:20:55;1.00;;;0.98;;
21503;SDS011;10913;51.992;9.228;2023-04-24T13:23:20;1.40;;;1.30;;
21503;SDS011;10913;51.992;9.228;2023-04-24T13:25:46;1.50;;;1.40;;
21503;SDS011;10913;51.992;9.228;2023-04-24T13:28:12;4.22;;;1.70;;
21503;SDS011;10913;51.992;9.228;2023-04-24T13:30:37;2.30;;;1.90;;
21503;SDS011;10913;51.992;9.228;2023-04-24T13:33:03;3.05;;;2.75;;
21503;SDS011;10913;51.992;9.228;2023-04-24T13:35:28;4.05;;;3.67;;
21503;SDS011;10913;51.992;9.228;2023-04-24T13:37:54;3.20;;;2.90;;
21503;SDS011;10913;51.992;9.228;2023-04-24T13:40:19;3.13;;;2.42;;
21503;SDS011;10913;51.992;9.228;2023-04-24T13:42:45;4.53;;;4.07;;
21503;SDS011;10913;51.992;9.228;2023-04-24T13:45:10;3.95;;;2.95;;
21503;SDS011;10913;51.992;9.228;2023-04-24T13:47:36;2.88;;;2.42;;
21503;SDS011;10913;51.992;9.228;2023-04-24T13:50:01;2.20;;;2.00;;
21503;SDS011;10913;51.992;9.228;2023-04-24T13:52:27;2.40;;;2.20;;
21503;SDS011;10913;51.992;9.228;2023-04-24T13:54:53;2.80;;;1.90;;
21503;SDS011;10913;51.992;9.228;2023-04-24T13:57:18;3.25;;;1.67;;
21503;SDS011;10913;51.992;9.228;2023-04-24T13:59:44;3.33;;;2.95;;
21503;SDS011;10913;51.992;9.228;2023-04-24T14:02:10;2.47;;;1.95;;
21503;SDS011;10913;51.992;9.228;2023-04-24T14:04:35;2.17;;;1.70;;
21503;SDS011;10913;51.992;9.228;2023-04-24T14:07:01;1.80;;;1.70;;
21503;SDS011;10913;51.992;9.228;2023-04-24T14:09:26;3.00;;;2.10;;
21503;SDS011;10913;51.992;9.228;2023-04-24T14:11:51;1.90;;;1.80;;
21503;SDS011;10913;51.992;9.228;2023-04-24T14:14:17;1.48;;;1.38;;
21503;SDS011;10913;51.992;9.228;2023-04-24T14:16:42;1.85;;;1.70;;
21503;SDS011;10913;51.992;9.228;2023-04-24T14:19:07;2.40;;;1.70;;
21503;SDS011;10913;51.992;9.228;2023-04-24T14:21:33;2.67;;;1.98;;
21503;SDS011;10913;51.992;9.228;2023-04-24T14:23:58;2.22;;;2.03;;
21503;SDS011;10913;51.992;9.228;2023-04-24T14:26:24;4.85;;;2.10;;
21503;SDS011;10913;51.992;9.228;2023-04-24T14:28:50;4.10;;;2.40;;
21503;SDS011;10913;51.992;9.228;2023-04-24T14:31:15;3.88;;;2.50;;
21503;SDS011;10913;51.992;9.228;2023-04-24T14:33:41;3.65;;;2.50;;
21503;SDS011;10913;51.992;9.228;2023-04-24T14:36:06;4.88;;;3.00;;
21503;SDS011;10913;51.992;9.228;2023-04-24T14:38:32;5.07;;;2.80;;
21503;SDS011;10913;51.992;9.228;2023-04-24T14:40:57;3.92;;;2.85;;
21503;SDS011;10913;51.992;9.228;2023-04-24T14:43:22;3.50;;;2.92;;
21503;SDS011;10913;51.992;9.228;2023-04-24T14:45:48;4.78;;;3.40;;
21503;SDS011;10913;51.992;9.228;2023-04-24T14:48:13;4.22;;;3.20;;
21503;SDS011;10913;51.992;9.228;2023-04-24T14:50:39;4.65;;;3.88;;
21503;SDS011;10913;51.992;9.228;2023-04-24T14:53:04;7.05;;;3.60;;
21503;SDS011;10913;51.992;9.228;2023-04-24T14:55:30;8.00;;;4.63;;
21503;SDS011;10913;51.992;9.228;2023-04-24T14:57:56;6.35;;;3.90;;
21503;SDS011;10913;51.992;9.228;2023-04-24T15:00:21;9.15;;;4.20;;
21503;SDS011;10913;51.992;9.228;2023-04-24T15:02:48;5.65;;;3.85;;
21503;SDS011;10913;51.992;9.228;2023-04-24T15:05:14;6.80;;;4.15;;
21503;SDS011;10913;51.992;9.228;2023-04-24T15:07:39;6.20;;;4.20;;